sensor_id;sensor_type;location;lat;lon;timestamp;temperature;humidity
674;DHT22;319;48.764;9.174;2023-08-24T00:01:37;23.50;95.60
674;DHT22;319;48.764;9.174;2023-08-24T00:04:04;23.50;95.40
674;DHT22;319;48.764;9.174;2023-08-24T00:06:33;23.40;95.40
674;DHT22;319;48.764;9.174;2023-08-24T00:09:00;23.30;95.70
674;DHT22;319;48.764;9.174;2023-08-24T00:11:27;23.30;95.80
674;DHT22;319;48.764;9.174;2023-08-24T00:13:54;23.30;95.80
674;DHT22;319;48.764;9.174;2023-08-24T00:16:22;23.30;96.10
674;DHT22;319;48.764;9.174;2023-08-24T00:18:49;23.30;96.10
674;DHT22;319;48.764;9.174;2023-08-24T00:21:16;23.30;96.20
674;DHT22;319;48.764;9.174;2023-08-24T00:23:45;23.30;96.10
674;DHT22;319;48.764;9.174;2023-08-24T00:26:11;23.30;96.20
674;DHT22;319;48.764;9.174;2023-08-24T00:28:38;23.20;96.40
674;DHT22;319;48.764;9.174;2023-08-24T00:31:05;23.00;96.50
674;DHT22;319;48.764;9.174;2023-08-24T00:33:34;23.00;96.70
674;DHT22;319;48.764;9.174;2023-08-24T00:36:01;23.00;96.80
674;DHT22;319;48.764;9.174;2023-08-24T00:38:28;23.00;96.80
674;DHT22;319;48.764;9.174;2023-08-24T00:40:56;23.10;96.80
674;DHT22;319;48.764;9.174;2023-08-24T00:43:24;23.00;96.80
674;DHT22;319;48.764;9.174;2023-08-24T00:45:52;23.10;96.90
674;DHT22;319;48.764;9.174;2023-08-24T00:48:19;23.20;96.90
674;DHT22;319;48.764;9.174;2023-08-24T00:50:52;23.10;96.70
674;DHT22;319;48.764;9.174;2023-08-24T00:53:20;23.00;96.90
674;DHT22;319;48.764;9.174;2023-08-24T00:55:47;22.90;97.20
674;DHT22;319;48.764;9.174;2023-08-24T00:58:14;22.90;97.30
674;DHT22;319;48.764;9.174;2023-08-24T01:00:41;22.80;97.30
674;DHT22;319;48.764;9.174;2023-08-24T01:03:08;22.90;97.40
674;DHT22;319;48.764;9.174;2023-08-24T01:05:35;22.90;97.30
674;DHT22;319;48.764;9.174;2023-08-24T01:08:04;22.90;97.20
674;DHT22;319;48.764;9.174;2023-08-24T01:10:43;22.90;97.20
674;DHT22;319;48.764;9.174;2023-08-24T01:13:16;22.90;97.20
674;DHT22;319;48.764;9.174;2023-08-24T01:15:49;22.90;97.30
674;DHT22;319;48.764;9.174;2023-08-24T01:18:19;22.80;97.40
674;DHT22;319;48.764;9.174;2023-08-24T01:20:49;22.80;97.50
674;DHT22;319;48.764;9.174;2023-08-24T01:23:32;22.80;97.50
674;DHT22;319;48.764;9.174;2023-08-24T01:26:07;22.80;97.50
674;DHT22;319;48.764;9.174;2023-08-24T01:28:34;22.80;97.70
674;DHT22;319;48.764;9.174;2023-08-24T01:31:01;22.80;97.70
674;DHT22;319;48.764;9.174;2023-08-24T01:33:30;22.70;97.80
674;DHT22;319;48.764;9.174;2023-08-24T01:35:57;22.80;97.80
674;DHT22;319;48.764;9.174;2023-08-24T01:38:24;22.80;98.10
674;DHT22;319;48.764;9.174;2023-08-24T01:41:01;22.80;97.80
674;DHT22;319;48.764;9.174;2023-08-24T01:43:35;22.80;97.80
674;DHT22;319;48.764;9.174;2023-08-24T01:46:04;22.80;97.80
674;DHT22;319;48.764;9.174;2023-08-24T01:48:31;22.80;98.00
674;DHT22;319;48.764;9.174;2023-08-24T01:51:00;22.80;97.80
674;DHT22;319;48.764;9.174;2023-08-24T01:53:30;22.80;97.70
674;DHT22;319;48.764;9.174;2023-08-24T01:55:57;22.80;97.80
674;DHT22;319;48.764;9.174;2023-08-24T01:58:24;22.90;97.90
674;DHT22;319;48.764;9.174;2023-08-24T02:00:52;22.80;97.90
674;DHT22;319;48.764;9.174;2023-08-24T02:03:19;22.90;97.90
674;DHT22;319;48.764;9.174;2023-08-24T02:05:46;22.80;97.80
674;DHT22;319;48.764;9.174;2023-08-24T02:08:13;22.90;97.80
674;DHT22;319;48.764;9.174;2023-08-24T02:10:40;22.90;97.70
674;DHT22;319;48.764;9.174;2023-08-24T02:13:06;22.90;97.70
674;DHT22;319;48.764;9.174;2023-08-24T02:15:33;22.90;97.80
674;DHT22;319;48.764;9.174;2023-08-24T02:18:02;22.80;97.90
674;DHT22;319;48.764;9.174;2023-08-24T02:20:30;22.80;98.00
674;DHT22;319;48.764;9.174;2023-08-24T02:22:56;22.80;98.10
674;DHT22;319;48.764;9.174;2023-08-24T02:25:23;22.80;98.10
674;DHT22;319;48.764;9.174;2023-08-24T02:27:50;22.80;98.20
674;DHT22;319;48.764;9.174;2023-08-24T02:30:17;22.80;98.20
674;DHT22;319;48.764;9.174;2023-08-24T02:32:44;22.90;98.30
674;DHT22;319;48.764;9.174;2023-08-24T02:35:13;22.70;98.30
674;DHT22;319;48.764;9.174;2023-08-24T02:37:40;22.60;98.30
674;DHT22;319;48.764;9.174;2023-08-24T02:40:07;22.50;98.50
674;DHT22;319;48.764;9.174;2023-08-24T02:42:35;22.50;98.80
674;DHT22;319;48.764;9.174;2023-08-24T02:45:02;22.50;98.90
674;DHT22;319;48.764;9.174;2023-08-24T02:47:30;22.50;98.90
674;DHT22;319;48.764;9.174;2023-08-24T02:49:57;22.50;99.00
674;DHT22;319;48.764;9.174;2023-08-24T02:52:25;22.50;98.90
674;DHT22;319;48.764;9.174;2023-08-24T02:54:52;22.40;98.90
674;DHT22;319;48.764;9.174;2023-08-24T02:57:19;22.40;98.90
674;DHT22;319;48.764;9.174;2023-08-24T02:59:46;22.40;98.90
674;DHT22;319;48.764;9.174;2023-08-24T03:02:13;22.40;99.00
674;DHT22;319;48.764;9.174;2023-08-24T03:04:40;22.40;99.10
674;DHT22;319;48.764;9.174;2023-08-24T03:07:06;22.50;99.40
674;DHT22;319;48.764;9.174;2023-08-24T03:09:37;22.50;99.00
674;DHT22;319;48.764;9.174;2023-08-24T03:12:04;22.50;99.00
674;DHT22;319;48.764;9.174;2023-08-24T03:14:31;22.50;98.90
674;DHT22;319;48.764;9.174;2023-08-24T03:16:58;22.40;98.90
674;DHT22;319;48.764;9.174;2023-08-24T03:19:25;22.40;99.10
674;DHT22;319;48.764;9.174;2023-08-24T03:21:52;22.40;99.10
674;DHT22;319;48.764;9.174;2023-08-24T03:24:19;22.50;99.10
674;DHT22;319;48.764;9.174;2023-08-24T03:26:47;22.50;99.10
674;DHT22;319;48.764;9.174;2023-08-24T03:29:14;22.40;99.00
674;DHT22;319;48.764;9.174;2023-08-24T03:31:41;22.40;99.00
674;DHT22;319;48.764;9.174;2023-08-24T03:34:08;22.30;99.20
674;DHT22;319;48.764;9.174;2023-08-24T03:36:35;22.30;99.40
674;DHT22;319;48.764;9.174;2023-08-24T03:39:03;22.30;99.50
674;DHT22;319;48.764;9.174;2023-08-24T03:41:30;22.30;99.50
674;DHT22;319;48.764;9.174;2023-08-24T03:43:59;22.30;99.50
674;DHT22;319;48.764;9.174;2023-08-24T03:46:25;22.30;99.50
674;DHT22;319;48.764;9.174;2023-08-24T03:48:52;22.30;99.50
674;DHT22;319;48.764;9.174;2023-08-24T03:51:19;22.30;99.60
674;DHT22;319;48.764;9.174;2023-08-24T03:53:46;22.30;99.70
674;DHT22;319;48.764;9.174;2023-08-24T03:56:13;22.30;99.80
674;DHT22;319;48.764;9.174;2023-08-24T03:58:40;22.40;99.60
674;DHT22;319;48.764;9.174;2023-08-24T04:01:11;22.30;99.40
674;DHT22;319;48.764;9.174;2023-08-24T04:03:38;22.20;99.60
674;DHT22;319;48.764;9.174;2023-08-24T04:06:05;22.20;99.60
674;DHT22;319;48.764;9.174;2023-08-24T04:08:33;22.20;99.70
674;DHT22;319;48.764;9.174;2023-08-24T04:11:00;22.20;99.60
674;DHT22;319;48.764;9.174;2023-08-24T04:13:30;22.30;99.70
674;DHT22;319;48.764;9.174;2023-08-24T04:15:57;22.40;99.60
674;DHT22;319;48.764;9.174;2023-08-24T04:18:25;22.40;99.50
674;DHT22;319;48.764;9.174;2023-08-24T04:20:52;22.40;99.50
674;DHT22;319;48.764;9.174;2023-08-24T04:23:24;22.30;99.50
674;DHT22;319;48.764;9.174;2023-08-24T04:25:52;22.30;99.50
674;DHT22;319;48.764;9.174;2023-08-24T04:28:19;22.30;99.70
674;DHT22;319;48.764;9.174;2023-08-24T04:30:50;22.30;99.50
674;DHT22;319;48.764;9.174;2023-08-24T04:33:17;22.30;99.50
674;DHT22;319;48.764;9.174;2023-08-24T04:35:47;22.40;99.30
674;DHT22;319;48.764;9.174;2023-08-24T04:38:14;22.50;99.20
674;DHT22;319;48.764;9.174;2023-08-24T04:40:46;22.50;99.30
674;DHT22;319;48.764;9.174;2023-08-24T04:43:13;22.50;99.40
674;DHT22;319;48.764;9.174;2023-08-24T04:45:40;22.50;99.50
674;DHT22;319;48.764;9.174;2023-08-24T04:48:07;22.50;99.40
674;DHT22;319;48.764;9.174;2023-08-24T04:50:33;22.60;99.30
674;DHT22;319;48.764;9.174;2023-08-24T04:53:02;22.70;99.10
674;DHT22;319;48.764;9.174;2023-08-24T04:55:29;22.70;99.20
674;DHT22;319;48.764;9.174;2023-08-24T04:57:56;22.60;99.10
674;DHT22;319;48.764;9.174;2023-08-24T05:00:23;22.60;99.30
674;DHT22;319;48.764;9.174;2023-08-24T05:02:50;22.50;99.30
674;DHT22;319;48.764;9.174;2023-08-24T05:05:17;22.50;99.40
674;DHT22;319;48.764;9.174;2023-08-24T05:07:44;22.40;99.60
674;DHT22;319;48.764;9.174;2023-08-24T05:10:12;22.40;99.70
674;DHT22;319;48.764;9.174;2023-08-24T05:12:39;22.50;99.60
674;DHT22;319;48.764;9.174;2023-08-24T05:15:07;22.50;99.60
674;DHT22;319;48.764;9.174;2023-08-24T05:17:34;22.60;99.40
674;DHT22;319;48.764;9.174;2023-08-24T05:20:01;22.70;99.30
674;DHT22;319;48.764;9.174;2023-08-24T05:22:29;22.70;99.20
674;DHT22;319;48.764;9.174;2023-08-24T05:24:56;22.80;99.30
674;DHT22;319;48.764;9.174;2023-08-24T05:27:24;22.80;99.20
674;DHT22;319;48.764;9.174;2023-08-24T05:29:51;22.90;99.20
674;DHT22;319;48.764;9.174;2023-08-24T05:32:18;22.90;99.00
674;DHT22;319;48.764;9.174;2023-08-24T05:34:45;23.10;98.80
674;DHT22;319;48.764;9.174;2023-08-24T05:37:12;23.10;98.50
674;DHT22;319;48.764;9.174;2023-08-24T05:39:39;23.30;98.30
674;DHT22;319;48.764;9.174;2023-08-24T05:42:06;23.30;98.20
674;DHT22;319;48.764;9.174;2023-08-24T05:44:34;23.30;98.60
674;DHT22;319;48.764;9.174;2023-08-24T05:47:02;23.30;98.20
674;DHT22;319;48.764;9.174;2023-08-24T05:49:28;23.40;98.10
674;DHT22;319;48.764;9.174;2023-08-24T05:51:55;23.50;97.90
674;DHT22;319;48.764;9.174;2023-08-24T05:54:22;23.60;97.60
674;DHT22;319;48.764;9.174;2023-08-24T05:56:49;23.70;97.40
674;DHT22;319;48.764;9.174;2023-08-24T05:59:16;23.80;97.50
674;DHT22;319;48.764;9.174;2023-08-24T06:01:45;23.90;97.20
674;DHT22;319;48.764;9.174;2023-08-24T06:04:12;24.10;96.90
674;DHT22;319;48.764;9.174;2023-08-24T06:06:38;24.10;96.60
674;DHT22;319;48.764;9.174;2023-08-24T06:09:05;24.20;96.40
674;DHT22;319;48.764;9.174;2023-08-24T06:11:32;24.30;96.10
674;DHT22;319;48.764;9.174;2023-08-24T06:13:59;24.30;95.90
674;DHT22;319;48.764;9.174;2023-08-24T06:16:27;24.50;95.70
674;DHT22;319;48.764;9.174;2023-08-24T06:18:55;24.60;95.40
674;DHT22;319;48.764;9.174;2023-08-24T06:21:22;24.80;95.10
674;DHT22;319;48.764;9.174;2023-08-24T06:23:49;24.90;95.00
674;DHT22;319;48.764;9.174;2023-08-24T06:26:17;25.10;94.50
674;DHT22;319;48.764;9.174;2023-08-24T06:28:44;25.20;94.40
674;DHT22;319;48.764;9.174;2023-08-24T06:31:11;25.40;94.00
674;DHT22;319;48.764;9.174;2023-08-24T06:33:38;25.60;93.80
674;DHT22;319;48.764;9.174;2023-08-24T06:36:07;25.70;93.40
674;DHT22;319;48.764;9.174;2023-08-24T06:38:34;25.70;93.20
674;DHT22;319;48.764;9.174;2023-08-24T06:41:02;25.70;93.20
674;DHT22;319;48.764;9.174;2023-08-24T06:43:38;25.70;93.10
674;DHT22;319;48.764;9.174;2023-08-24T06:46:05;25.70;93.20
674;DHT22;319;48.764;9.174;2023-08-24T06:48:33;25.50;93.30
674;DHT22;319;48.764;9.174;2023-08-24T06:51:00;25.50;93.30
674;DHT22;319;48.764;9.174;2023-08-24T06:53:28;25.40;93.50
674;DHT22;319;48.764;9.174;2023-08-24T06:55:56;25.40;93.60
674;DHT22;319;48.764;9.174;2023-08-24T06:58:23;25.30;93.80
674;DHT22;319;48.764;9.174;2023-08-24T07:00:50;25.20;93.90
674;DHT22;319;48.764;9.174;2023-08-24T07:03:17;25.20;94.00
674;DHT22;319;48.764;9.174;2023-08-24T07:05:45;25.20;93.80
674;DHT22;319;48.764;9.174;2023-08-24T07:08:12;25.20;94.10
674;DHT22;319;48.764;9.174;2023-08-24T07:10:42;25.30;93.90
674;DHT22;319;48.764;9.174;2023-08-24T07:13:09;25.30;94.00
674;DHT22;319;48.764;9.174;2023-08-24T07:15:36;25.40;93.70
674;DHT22;319;48.764;9.174;2023-08-24T07:18:04;25.60;93.50
674;DHT22;319;48.764;9.174;2023-08-24T07:20:32;26.10;93.50
674;DHT22;319;48.764;9.174;2023-08-24T07:23:02;27.00;91.90
674;DHT22;319;48.764;9.174;2023-08-24T07:25:29;27.50;90.90
674;DHT22;319;48.764;9.174;2023-08-24T07:27:58;27.70;90.40
674;DHT22;319;48.764;9.174;2023-08-24T07:30:25;27.70;90.40
674;DHT22;319;48.764;9.174;2023-08-24T07:32:53;28.20;90.20
674;DHT22;319;48.764;9.174;2023-08-24T07:35:20;28.60;88.10
674;DHT22;319;48.764;9.174;2023-08-24T07:37:50;28.60;87.50
674;DHT22;319;48.764;9.174;2023-08-24T07:40:18;28.40;87.40
674;DHT22;319;48.764;9.174;2023-08-24T07:42:45;28.40;87.90
674;DHT22;319;48.764;9.174;2023-08-24T07:45:14;28.70;87.50
674;DHT22;319;48.764;9.174;2023-08-24T07:47:41;29.40;85.50
674;DHT22;319;48.764;9.174;2023-08-24T07:50:09;30.40;82.50
674;DHT22;319;48.764;9.174;2023-08-24T07:52:37;31.00;79.80
674;DHT22;319;48.764;9.174;2023-08-24T07:55:06;31.60;77.90
674;DHT22;319;48.764;9.174;2023-08-24T07:57:33;32.20;74.40
674;DHT22;319;48.764;9.174;2023-08-24T08:00:00;32.80;72.60
674;DHT22;319;48.764;9.174;2023-08-24T08:02:29;33.50;69.50
674;DHT22;319;48.764;9.174;2023-08-24T08:04:58;33.90;67.30
674;DHT22;319;48.764;9.174;2023-08-24T08:07:25;33.90;65.90
674;DHT22;319;48.764;9.174;2023-08-24T08:09:52;34.20;65.60
674;DHT22;319;48.764;9.174;2023-08-24T08:12:19;34.40;64.20
674;DHT22;319;48.764;9.174;2023-08-24T08:14:46;34.40;63.80
674;DHT22;319;48.764;9.174;2023-08-24T08:17:13;34.60;63.00
674;DHT22;319;48.764;9.174;2023-08-24T08:19:41;34.10;62.40
674;DHT22;319;48.764;9.174;2023-08-24T08:22:08;33.60;63.90
674;DHT22;319;48.764;9.174;2023-08-24T08:24:35;33.10;64.90
674;DHT22;319;48.764;9.174;2023-08-24T08:27:02;33.20;64.90
674;DHT22;319;48.764;9.174;2023-08-24T08:29:29;33.60;64.30
674;DHT22;319;48.764;9.174;2023-08-24T08:31:56;34.10;62.80
674;DHT22;319;48.764;9.174;2023-08-24T08:34:23;34.10;61.50
674;DHT22;319;48.764;9.174;2023-08-24T08:36:51;34.50;61.00
674;DHT22;319;48.764;9.174;2023-08-24T08:39:18;35.20;59.10
674;DHT22;319;48.764;9.174;2023-08-24T08:41:46;35.50;57.70
674;DHT22;319;48.764;9.174;2023-08-24T08:44:13;35.70;57.00
674;DHT22;319;48.764;9.174;2023-08-24T08:46:41;35.60;56.40
674;DHT22;319;48.764;9.174;2023-08-24T08:49:09;35.20;56.90
674;DHT22;319;48.764;9.174;2023-08-24T08:51:37;35.10;57.30
674;DHT22;319;48.764;9.174;2023-08-24T08:54:06;35.00;57.30
674;DHT22;319;48.764;9.174;2023-08-24T08:56:33;34.80;57.40
674;DHT22;319;48.764;9.174;2023-08-24T08:59:00;34.90;57.20
674;DHT22;319;48.764;9.174;2023-08-24T09:01:29;34.80;57.30
674;DHT22;319;48.764;9.174;2023-08-24T09:03:57;34.70;57.50
674;DHT22;319;48.764;9.174;2023-08-24T09:06:24;34.40;57.70
674;DHT22;319;48.764;9.174;2023-08-24T09:08:52;34.00;58.60
674;DHT22;319;48.764;9.174;2023-08-24T09:11:20;33.60;59.30
674;DHT22;319;48.764;9.174;2023-08-24T09:13:49;33.00;60.50
674;DHT22;319;48.764;9.174;2023-08-24T09:16:16;32.50;62.50
674;DHT22;319;48.764;9.174;2023-08-24T09:18:46;32.20;63.60
674;DHT22;319;48.764;9.174;2023-08-24T09:21:15;31.70;64.70
674;DHT22;319;48.764;9.174;2023-08-24T09:23:44;31.40;65.60
674;DHT22;319;48.764;9.174;2023-08-24T09:26:12;31.20;66.90
674;DHT22;319;48.764;9.174;2023-08-24T09:28:42;31.10;67.40
674;DHT22;319;48.764;9.174;2023-08-24T09:31:12;30.70;68.00
674;DHT22;319;48.764;9.174;2023-08-24T09:33:42;30.60;69.20
674;DHT22;319;48.764;9.174;2023-08-24T09:36:14;30.40;69.90
674;DHT22;319;48.764;9.174;2023-08-24T09:38:46;30.40;70.20
674;DHT22;319;48.764;9.174;2023-08-24T09:41:13;30.50;70.40
674;DHT22;319;48.764;9.174;2023-08-24T09:43:41;30.70;70.60
674;DHT22;319;48.764;9.174;2023-08-24T09:46:09;30.70;70.40
674;DHT22;319;48.764;9.174;2023-08-24T09:48:35;30.70;71.10
674;DHT22;319;48.764;9.174;2023-08-24T09:51:04;30.70;71.00
674;DHT22;319;48.764;9.174;2023-08-24T09:53:33;30.80;70.60
674;DHT22;319;48.764;9.174;2023-08-24T09:56:04;30.80;70.90
674;DHT22;319;48.764;9.174;2023-08-24T09:58:32;30.80;70.30
674;DHT22;319;48.764;9.174;2023-08-24T10:01:03;30.90;70.20
674;DHT22;319;48.764;9.174;2023-08-24T10:03:33;31.00;71.00
674;DHT22;319;48.764;9.174;2023-08-24T10:06:03;30.90;71.00
674;DHT22;319;48.764;9.174;2023-08-24T10:08:35;30.80;71.00
674;DHT22;319;48.764;9.174;2023-08-24T10:11:03;31.00;71.30
674;DHT22;319;48.764;9.174;2023-08-24T10:13:35;31.10;71.40
674;DHT22;319;48.764;9.174;2023-08-24T10:16:06;31.10;71.30
674;DHT22;319;48.764;9.174;2023-08-24T10:18:34;31.10;71.10
674;DHT22;319;48.764;9.174;2023-08-24T10:21:01;31.20;71.20
674;DHT22;319;48.764;9.174;2023-08-24T10:23:29;31.30;71.20
674;DHT22;319;48.764;9.174;2023-08-24T10:25:57;31.30;71.50
674;DHT22;319;48.764;9.174;2023-08-24T10:28:26;31.40;71.50
674;DHT22;319;48.764;9.174;2023-08-24T10:30:54;31.40;72.00
674;DHT22;319;48.764;9.174;2023-08-24T10:33:24;31.50;71.70
674;DHT22;319;48.764;9.174;2023-08-24T10:35:52;31.40;71.90
674;DHT22;319;48.764;9.174;2023-08-24T10:38:26;31.50;72.50
674;DHT22;319;48.764;9.174;2023-08-24T10:40:53;31.60;72.20
674;DHT22;319;48.764;9.174;2023-08-24T10:43:22;31.70;72.40
674;DHT22;319;48.764;9.174;2023-08-24T10:45:55;31.90;72.10
674;DHT22;319;48.764;9.174;2023-08-24T10:48:25;32.00;71.20
674;DHT22;319;48.764;9.174;2023-08-24T10:51:17;32.10;71.50
674;DHT22;319;48.764;9.174;2023-08-24T10:53:46;32.20;72.00
674;DHT22;319;48.764;9.174;2023-08-24T10:56:14;32.50;71.70
674;DHT22;319;48.764;9.174;2023-08-24T10:58:42;32.60;71.90
674;DHT22;319;48.764;9.174;2023-08-24T11:01:15;32.80;71.60
674;DHT22;319;48.764;9.174;2023-08-24T11:03:49;33.00;71.10
674;DHT22;319;48.764;9.174;2023-08-24T11:06:21;33.20;70.30
674;DHT22;319;48.764;9.174;2023-08-24T11:08:48;33.40;70.00
674;DHT22;319;48.764;9.174;2023-08-24T11:11:19;33.60;69.60
674;DHT22;319;48.764;9.174;2023-08-24T11:14:15;33.70;69.50
674;DHT22;319;48.764;9.174;2023-08-24T11:16:44;33.90;69.40
674;DHT22;319;48.764;9.174;2023-08-24T11:19:13;34.00;69.20
674;DHT22;319;48.764;9.174;2023-08-24T11:21:41;34.00;69.00
674;DHT22;319;48.764;9.174;2023-08-24T11:24:09;34.00;68.90
674;DHT22;319;48.764;9.174;2023-08-24T11:26:40;33.90;69.80
674;DHT22;319;48.764;9.174;2023-08-24T11:29:08;33.90;69.70
674;DHT22;319;48.764;9.174;2023-08-24T11:31:35;33.80;69.60
674;DHT22;319;48.764;9.174;2023-08-24T11:34:02;33.80;69.70
674;DHT22;319;48.764;9.174;2023-08-24T11:36:31;33.90;69.30
674;DHT22;319;48.764;9.174;2023-08-24T11:39:13;33.90;69.90
674;DHT22;319;48.764;9.174;2023-08-24T11:41:40;33.90;69.70
674;DHT22;319;48.764;9.174;2023-08-24T11:44:07;33.90;69.60
674;DHT22;319;48.764;9.174;2023-08-24T11:46:34;34.00;69.00
674;DHT22;319;48.764;9.174;2023-08-24T11:54:51;34.30;69.00
674;DHT22;319;48.764;9.174;2023-08-24T11:57:19;34.30;68.80
674;DHT22;319;48.764;9.174;2023-08-24T11:59:46;34.30;68.70
674;DHT22;319;48.764;9.174;2023-08-24T12:02:13;34.40;68.90
674;DHT22;319;48.764;9.174;2023-08-24T12:04:43;34.50;68.60
674;DHT22;319;48.764;9.174;2023-08-24T12:07:10;34.50;67.20
674;DHT22;319;48.764;9.174;2023-08-24T12:09:38;34.50;66.70
674;DHT22;319;48.764;9.174;2023-08-24T12:12:12;34.50;66.90
674;DHT22;319;48.764;9.174;2023-08-24T12:14:43;34.50;67.90
674;DHT22;319;48.764;9.174;2023-08-24T12:17:10;34.60;67.30
674;DHT22;319;48.764;9.174;2023-08-24T12:19:41;34.50;67.30
674;DHT22;319;48.764;9.174;2023-08-24T12:22:15;34.60;67.30
674;DHT22;319;48.764;9.174;2023-08-24T12:24:45;34.50;67.20
674;DHT22;319;48.764;9.174;2023-08-24T12:27:19;34.50;67.60
674;DHT22;319;48.764;9.174;2023-08-24T12:29:46;34.40;67.10
674;DHT22;319;48.764;9.174;2023-08-24T12:32:13;34.40;67.20
674;DHT22;319;48.764;9.174;2023-08-24T12:34:41;34.40;67.00
674;DHT22;319;48.764;9.174;2023-08-24T12:37:08;34.60;67.20
674;DHT22;319;48.764;9.174;2023-08-24T12:39:36;34.80;66.20
674;DHT22;319;48.764;9.174;2023-08-24T12:42:03;34.90;65.60
674;DHT22;319;48.764;9.174;2023-08-24T12:44:32;34.70;65.50
674;DHT22;319;48.764;9.174;2023-08-24T12:46:59;34.80;66.00
674;DHT22;319;48.764;9.174;2023-08-24T12:49:27;34.90;66.30
674;DHT22;319;48.764;9.174;2023-08-24T12:51:54;34.90;66.20
674;DHT22;319;48.764;9.174;2023-08-24T12:54:21;35.00;65.20
674;DHT22;319;48.764;9.174;2023-08-24T12:56:50;35.20;65.00
674;DHT22;319;48.764;9.174;2023-08-24T12:59:20;35.40;64.20
674;DHT22;319;48.764;9.174;2023-08-24T13:01:49;35.50;62.60
674;DHT22;319;48.764;9.174;2023-08-24T13:04:16;35.40;63.00
674;DHT22;319;48.764;9.174;2023-08-24T13:06:43;35.30;63.50
674;DHT22;319;48.764;9.174;2023-08-24T13:09:10;35.30;63.30
674;DHT22;319;48.764;9.174;2023-08-24T13:11:37;35.40;63.60
674;DHT22;319;48.764;9.174;2023-08-24T13:14:04;35.30;63.00
674;DHT22;319;48.764;9.174;2023-08-24T13:16:31;35.50;62.70
674;DHT22;319;48.764;9.174;2023-08-24T13:18:59;35.40;62.10
674;DHT22;319;48.764;9.174;2023-08-24T13:21:26;35.50;62.60
674;DHT22;319;48.764;9.174;2023-08-24T13:24:17;35.50;63.00
674;DHT22;319;48.764;9.174;2023-08-24T13:26:44;35.60;61.50
674;DHT22;319;48.764;9.174;2023-08-24T13:29:11;35.50;61.20
674;DHT22;319;48.764;9.174;2023-08-24T13:31:38;35.80;61.70
674;DHT22;319;48.764;9.174;2023-08-24T13:34:06;36.00;61.00
674;DHT22;319;48.764;9.174;2023-08-24T13:36:34;36.20;59.90
674;DHT22;319;48.764;9.174;2023-08-24T13:39:01;36.20;59.40
674;DHT22;319;48.764;9.174;2023-08-24T13:41:30;36.30;59.20
674;DHT22;319;48.764;9.174;2023-08-24T13:43:57;36.30;59.50
674;DHT22;319;48.764;9.174;2023-08-24T13:46:24;36.30;59.20
674;DHT22;319;48.764;9.174;2023-08-24T13:48:51;36.10;58.50
674;DHT22;319;48.764;9.174;2023-08-24T13:51:19;36.00;59.00
674;DHT22;319;48.764;9.174;2023-08-24T13:53:47;35.90;58.30
674;DHT22;319;48.764;9.174;2023-08-24T13:56:14;35.90;57.80
674;DHT22;319;48.764;9.174;2023-08-24T13:58:44;36.00;57.30
674;DHT22;319;48.764;9.174;2023-08-24T14:01:15;35.90;56.40
674;DHT22;319;48.764;9.174;2023-08-24T14:03:42;35.80;56.50
674;DHT22;319;48.764;9.174;2023-08-24T14:06:09;35.90;56.60
674;DHT22;319;48.764;9.174;2023-08-24T14:08:40;35.90;56.50
674;DHT22;319;48.764;9.174;2023-08-24T14:11:08;35.90;55.80
674;DHT22;319;48.764;9.174;2023-08-24T14:13:37;35.90;55.40
674;DHT22;319;48.764;9.174;2023-08-24T14:16:04;35.90;54.40
674;DHT22;319;48.764;9.174;2023-08-24T14:18:31;35.90;54.30
674;DHT22;319;48.764;9.174;2023-08-24T14:21:02;36.00;54.10
674;DHT22;319;48.764;9.174;2023-08-24T14:23:29;36.00;53.80
674;DHT22;319;48.764;9.174;2023-08-24T14:25:57;36.00;52.60
674;DHT22;319;48.764;9.174;2023-08-24T14:28:25;36.00;52.60
674;DHT22;319;48.764;9.174;2023-08-24T14:31:15;36.00;52.60
674;DHT22;319;48.764;9.174;2023-08-24T14:33:42;36.10;52.60
674;DHT22;319;48.764;9.174;2023-08-24T14:36:09;36.10;52.40
674;DHT22;319;48.764;9.174;2023-08-24T14:38:38;36.00;52.40
674;DHT22;319;48.764;9.174;2023-08-24T14:41:09;36.00;53.30
674;DHT22;319;48.764;9.174;2023-08-24T14:43:37;36.00;53.00
674;DHT22;319;48.764;9.174;2023-08-24T14:46:05;36.00;53.10
674;DHT22;319;48.764;9.174;2023-08-24T14:48:32;35.90;53.40
674;DHT22;319;48.764;9.174;2023-08-24T14:50:59;35.80;53.80
674;DHT22;319;48.764;9.174;2023-08-24T14:53:27;35.60;54.20
674;DHT22;319;48.764;9.174;2023-08-24T14:55:55;35.50;55.40
674;DHT22;319;48.764;9.174;2023-08-24T14:58:25;35.10;55.60
674;DHT22;319;48.764;9.174;2023-08-24T15:00:53;34.80;56.60
674;DHT22;319;48.764;9.174;2023-08-24T15:03:21;33.90;64.20
674;DHT22;319;48.764;9.174;2023-08-24T15:05:56;33.00;69.90
674;DHT22;319;48.764;9.174;2023-08-24T15:08:24;32.40;74.00
674;DHT22;319;48.764;9.174;2023-08-24T15:10:53;31.90;78.10
674;DHT22;319;48.764;9.174;2023-08-24T15:13:20;31.50;81.00
674;DHT22;319;48.764;9.174;2023-08-24T15:15:49;30.90;85.90
674;DHT22;319;48.764;9.174;2023-08-24T15:18:16;30.40;89.80
674;DHT22;319;48.764;9.174;2023-08-24T15:20:43;29.80;91.10
674;DHT22;319;48.764;9.174;2023-08-24T15:23:10;29.20;91.90
674;DHT22;319;48.764;9.174;2023-08-24T15:25:46;28.90;92.80
674;DHT22;319;48.764;9.174;2023-08-24T15:28:13;28.70;93.60
674;DHT22;319;48.764;9.174;2023-08-24T15:30:40;28.70;93.70
674;DHT22;319;48.764;9.174;2023-08-24T15:33:12;28.40;94.00
674;DHT22;319;48.764;9.174;2023-08-24T15:35:40;28.30;94.30
674;DHT22;319;48.764;9.174;2023-08-24T15:38:08;28.30;94.60
674;DHT22;319;48.764;9.174;2023-08-24T15:40:35;28.20;94.50
674;DHT22;319;48.764;9.174;2023-08-24T15:43:03;28.10;94.50
674;DHT22;319;48.764;9.174;2023-08-24T15:45:31;28.10;94.20
674;DHT22;319;48.764;9.174;2023-08-24T15:47:59;28.10;93.90
674;DHT22;319;48.764;9.174;2023-08-24T15:50:28;27.90;93.60
674;DHT22;319;48.764;9.174;2023-08-24T15:52:55;28.00;93.90
674;DHT22;319;48.764;9.174;2023-08-24T15:55:28;28.00;93.60
674;DHT22;319;48.764;9.174;2023-08-24T15:57:57;27.90;93.70
674;DHT22;319;48.764;9.174;2023-08-24T16:00:24;27.90;93.50
674;DHT22;319;48.764;9.174;2023-08-24T16:02:51;27.70;93.40
674;DHT22;319;48.764;9.174;2023-08-24T16:05:18;27.60;93.60
674;DHT22;319;48.764;9.174;2023-08-24T16:07:47;27.60;93.70
674;DHT22;319;48.764;9.174;2023-08-24T16:10:14;27.60;94.00
674;DHT22;319;48.764;9.174;2023-08-24T16:12:41;27.60;94.40
674;DHT22;319;48.764;9.174;2023-08-24T16:15:09;27.60;94.30
674;DHT22;319;48.764;9.174;2023-08-24T16:17:36;27.60;94.30
674;DHT22;319;48.764;9.174;2023-08-24T16:20:03;27.60;94.20
674;DHT22;319;48.764;9.174;2023-08-24T16:22:35;27.60;94.30
674;DHT22;319;48.764;9.174;2023-08-24T16:25:04;27.60;94.00
674;DHT22;319;48.764;9.174;2023-08-24T16:27:31;27.70;93.70
674;DHT22;319;48.764;9.174;2023-08-24T16:29:59;27.70;93.40
674;DHT22;319;48.764;9.174;2023-08-24T16:32:26;27.60;93.60
674;DHT22;319;48.764;9.174;2023-08-24T16:34:53;27.60;93.40
674;DHT22;319;48.764;9.174;2023-08-24T16:37:20;27.60;93.40
674;DHT22;319;48.764;9.174;2023-08-24T16:39:47;27.60;93.60
674;DHT22;319;48.764;9.174;2023-08-24T16:42:16;27.50;93.80
674;DHT22;319;48.764;9.174;2023-08-24T16:44:43;27.40;94.80
674;DHT22;319;48.764;9.174;2023-08-24T16:47:10;27.20;95.60